createdAt,value
2018-01-26T00:01:12.663Z,-1.04
2018-01-26T00:03:41.176Z,-1.06
2018-01-26T00:06:10.547Z,-0.99
2018-01-26T00:08:39.052Z,-0.99
2018-01-26T00:11:07.560Z,-0.98
2018-01-26T00:13:36.323Z,-0.92
2018-01-26T00:16:05.665Z,-0.89
2018-01-26T00:18:34.227Z,-0.93
2018-01-26T00:21:03.822Z,-0.83
2018-01-26T00:23:33.087Z,-0.81
2018-01-26T00:26:01.646Z,-0.82
2018-01-26T00:28:30.187Z,-0.91
2018-01-26T00:30:59.443Z,-0.89
2018-01-26T00:33:27.939Z,-0.83
2018-01-26T00:35:56.548Z,-1.04
2018-01-26T00:38:25.867Z,-1.29
2018-01-26T00:40:55.122Z,-1.30
2018-01-26T00:43:23.899Z,-1.36
2018-01-26T00:45:52.391Z,-1.31
2018-01-26T00:48:20.887Z,-1.28
2018-01-26T00:50:49.499Z,-1.25
2018-01-26T00:53:18.810Z,-1.28
2018-01-26T00:55:47.363Z,-1.25
2018-01-26T00:58:16.730Z,-1.31
2018-01-26T01:00:45.264Z,-1.26
2018-01-26T01:03:14.583Z,-1.06
2018-01-26T01:05:43.139Z,-0.88
2018-01-26T01:08:12.461Z,-0.74
2018-01-26T01:10:41.007Z,-0.83
2018-01-26T01:13:10.510Z,-0.86
2018-01-26T01:15:39.000Z,-0.88
2018-01-26T01:18:08.267Z,-0.90
2018-01-26T01:20:36.830Z,-1.02
2018-01-26T01:23:05.331Z,-1.13
2018-01-26T01:25:33.843Z,-1.38
2018-01-26T01:28:02.545Z,-1.41
2018-01-26T01:30:31.910Z,-1.33
2018-01-26T01:33:00.407Z,-1.34
2018-01-26T01:35:28.953Z,-1.30
2018-01-26T01:37:57.507Z,-1.22
2018-01-26T01:40:26.007Z,-1.22
2018-01-26T01:42:54.648Z,-1.21
2018-01-26T01:45:23.150Z,-1.41
2018-01-26T01:47:51.704Z,-1.42
2018-01-26T01:50:20.266Z,-1.51
2018-01-26T01:52:48.825Z,-1.55
2018-01-26T01:55:17.379Z,-1.51
2018-01-26T01:57:46.019Z,-1.38
2018-01-26T02:00:14.523Z,-1.46
2018-01-26T02:02:43.028Z,-1.43
2018-01-26T02:05:12.404Z,-1.34
2018-01-26T02:07:40.957Z,-1.39
2018-01-26T02:10:09.458Z,-1.41
2018-01-26T02:12:37.998Z,-1.36
2018-01-26T02:15:06.499Z,-1.36
2018-01-26T02:17:34.989Z,-1.45
2018-01-26T02:20:03.713Z,-1.68
2018-01-26T02:22:32.976Z,-1.86
2018-01-26T02:25:01.554Z,-1.93
2018-01-26T02:27:30.475Z,-1.92
2018-01-26T02:29:58.971Z,-1.88
2018-01-26T02:32:28.220Z,-1.92
2018-01-26T02:34:56.816Z,-1.95
2018-01-26T02:37:25.315Z,-2.01
2018-01-26T02:39:53.819Z,-2.01
2018-01-26T02:42:23.575Z,-1.98
2018-01-26T02:44:52.140Z,-1.86
2018-01-26T02:47:20.642Z,-1.91
2018-01-26T02:49:49.643Z,-1.98
2018-01-26T02:52:18.143Z,-1.76
2018-01-26T02:54:46.647Z,-1.79
2018-01-26T02:57:16.138Z,-1.71
2018-01-26T02:59:44.632Z,-1.71
2018-01-26T03:02:13.896Z,-1.82
2018-01-26T03:04:42.439Z,-2.02
2018-01-26T03:07:10.935Z,-2.10
2018-01-26T03:09:39.435Z,-2.19
2018-01-26T03:12:08.075Z,-2.30
2018-01-26T03:14:37.331Z,-2.34
2018-01-26T03:17:05.831Z,-2.32
2018-01-26T03:19:35.375Z,-2.14
2018-01-26T03:22:03.944Z,-2.09
2018-01-26T03:24:33.206Z,-1.98
2018-01-26T03:27:01.749Z,-2.06
2018-01-26T03:29:30.251Z,-2.16
2018-01-26T03:31:58.803Z,-2.22
2018-01-26T03:34:27.622Z,-2.34
2018-01-26T03:36:56.172Z,-2.37
2018-01-26T03:39:24.724Z,-2.48
2018-01-26T03:41:53.326Z,-2.46
2018-01-26T03:44:22.580Z,-2.42
2018-01-26T03:46:51.115Z,-2.38
2018-01-26T03:49:20.431Z,-2.38
2018-01-26T03:51:48.936Z,-2.38
2018-01-26T03:54:17.428Z,-2.38
2018-01-26T03:56:45.999Z,-2.35
2018-01-26T03:59:14.490Z,-2.34
2018-01-26T04:01:42.983Z,-2.43
2018-01-26T04:04:11.682Z,-2.50
2018-01-26T04:06:41.013Z,-2.41
2018-01-26T04:09:09.571Z,-2.51
2018-01-26T04:11:38.463Z,-2.56
2018-01-26T04:14:07.785Z,-2.68
2018-01-26T04:16:36.335Z,-2.67
2018-01-26T04:19:04.896Z,-2.53
2018-01-26T04:21:33.386Z,-2.45
2018-01-26T04:24:01.892Z,-2.54
2018-01-26T04:26:32.111Z,-2.65
2018-01-26T04:29:01.440Z,-2.69
2018-01-26T04:31:29.948Z,-2.58
2018-01-26T04:33:58.490Z,-2.55
2018-01-26T04:36:27.752Z,-2.55
2018-01-26T04:38:56.319Z,-2.56
2018-01-26T04:41:25.114Z,-2.50
2018-01-26T04:43:53.673Z,-2.54
2018-01-26T04:46:22.231Z,-2.51
2018-01-26T04:48:51.627Z,-2.52
2018-01-26T04:51:20.882Z,-2.54
2018-01-26T04:53:49.469Z,-2.49
2018-01-26T04:56:18.067Z,-2.55
2018-01-26T04:58:46.580Z,-2.58
2018-01-26T05:01:15.912Z,-2.56
2018-01-26T05:03:44.651Z,-2.59
2018-01-26T05:06:13.158Z,-2.64
2018-01-26T05:08:42.418Z,-2.47
2018-01-26T05:11:11.397Z,-2.38
2018-01-26T05:13:39.899Z,-2.28
2018-01-26T05:16:08.407Z,-2.18
2018-01-26T05:18:37.722Z,-2.08
2018-01-26T05:21:06.234Z,-2.15
2018-01-26T05:23:34.738Z,-2.33
2018-01-26T05:26:03.447Z,-2.55
2018-01-26T05:28:32.717Z,-2.57
2018-01-26T05:31:01.279Z,-2.66
2018-01-26T05:33:29.973Z,-2.62
2018-01-26T05:35:59.313Z,-2.38
2018-01-26T05:38:27.815Z,-2.25
2018-01-26T05:40:56.612Z,-2.17
2018-01-26T05:43:25.112Z,-2.25
2018-01-26T05:45:53.614Z,-2.28
2018-01-26T05:48:23.263Z,-2.32
2018-01-26T05:50:51.820Z,-2.31
2018-01-26T05:53:21.168Z,-2.45
2018-01-26T05:55:49.996Z,-2.51
2018-01-26T05:58:19.259Z,-2.51
2018-01-26T06:00:47.787Z,-2.54
2018-01-26T06:03:17.184Z,-2.50
2018-01-26T06:05:46.501Z,-2.40
2018-01-26T06:08:15.014Z,-2.16
2018-01-26T06:10:43.713Z,-1.67
2018-01-26T06:13:12.257Z,-1.36
2018-01-26T06:15:40.812Z,-1.15
2018-01-26T06:18:10.298Z,-0.97
2018-01-26T06:20:38.816Z,-0.80
2018-01-26T06:23:07.375Z,-0.41
2018-01-26T06:25:36.112Z,0.17
2018-01-26T06:28:04.715Z,0.59
2018-01-26T06:30:33.251Z,1.19
2018-01-26T06:33:02.579Z,1.62
2018-01-26T06:35:31.083Z,1.76
2018-01-26T06:37:59.571Z,1.94
2018-01-26T06:40:28.272Z,1.85
2018-01-26T06:42:56.835Z,1.79
2018-01-26T06:45:25.351Z,1.92
2018-01-26T06:47:54.816Z,2.29
2018-01-26T06:50:23.367Z,2.35
2018-01-26T06:52:51.928Z,2.32
2018-01-26T06:55:21.398Z,2.52
2018-01-26T06:57:49.979Z,3.06
2018-01-26T07:00:18.475Z,3.67
2018-01-26T07:02:47.342Z,4.03
2018-01-26T07:05:15.847Z,4.17
2018-01-26T07:07:44.363Z,4.74
2018-01-26T07:10:13.847Z,4.67
2018-01-26T07:12:43.118Z,4.99
2018-01-26T07:15:11.602Z,5.11
2018-01-26T07:17:40.471Z,5.17
2018-01-26T07:20:08.977Z,5.24
2018-01-26T07:22:37.480Z,5.31
2018-01-26T07:25:06.908Z,5.72
2018-01-26T07:27:35.428Z,6.07
2018-01-26T07:30:04.010Z,6.20
2018-01-26T07:32:32.802Z,5.87
2018-01-26T07:35:01.308Z,5.83
2018-01-26T07:37:29.811Z,6.00
2018-01-26T07:39:59.215Z,6.88
2018-01-26T07:42:28.529Z,7.53
2018-01-26T07:44:57.019Z,7.73
2018-01-26T07:47:25.755Z,7.87
2018-01-26T07:49:54.283Z,7.55
2018-01-26T07:52:22.773Z,7.88
2018-01-26T07:54:51.425Z,7.48
2018-01-26T07:57:20.734Z,8.06
2018-01-26T07:59:49.987Z,8.29
2018-01-26T08:02:18.591Z,8.59
2018-01-26T08:04:47.100Z,8.64
2018-01-26T08:07:15.719Z,8.27
2018-01-26T08:09:44.592Z,7.85
2018-01-26T08:12:13.084Z,8.22
2018-01-26T08:14:41.575Z,8.74
2018-01-26T08:17:10.492Z,8.83
2018-01-26T08:19:39.809Z,8.95
2018-01-26T08:22:09.101Z,8.67
2018-01-26T08:24:38.660Z,8.83
2018-01-26T08:27:07.144Z,8.50
2018-01-26T08:29:36.407Z,9.05
2018-01-26T08:32:05.017Z,8.94
2018-01-26T08:34:33.567Z,8.41
2018-01-26T08:37:02.063Z,8.93
2018-01-26T08:39:31.028Z,9.50
2018-01-26T08:41:59.515Z,9.18
2018-01-26T08:44:28.015Z,9.05
2018-01-26T08:46:56.583Z,9.41
2018-01-26T08:49:25.085Z,10.41
2018-01-26T08:51:53.636Z,10.20
2018-01-26T08:54:22.236Z,10.17
2018-01-26T08:56:50.755Z,10.51
2018-01-26T08:59:19.299Z,10.91
2018-01-26T09:01:47.823Z,10.78
2018-01-26T09:04:16.338Z,11.03
2018-01-26T09:06:44.835Z,10.93
2018-01-26T09:09:13.511Z,10.74
2018-01-26T09:11:42.024Z,11.42
2018-01-26T09:14:11.357Z,10.83
2018-01-26T09:16:40.104Z,10.50
2018-01-26T09:19:08.596Z,10.25
2018-01-26T09:21:37.097Z,10.83
2018-01-26T09:24:05.637Z,11.43
2018-01-26T09:26:34.124Z,11.85
2018-01-26T09:29:02.612Z,11.57
2018-01-26T09:31:31.436Z,11.33
2018-01-26T09:34:00.691Z,10.99
2018-01-26T09:36:29.188Z,10.92
2018-01-26T09:38:58.078Z,11.28
2018-01-26T09:41:26.571Z,10.77
2018-01-26T09:43:55.068Z,10.31
2018-01-26T09:46:24.395Z,10.99
2018-01-26T09:48:52.927Z,11.90
2018-01-26T09:51:21.499Z,12.43
2018-01-26T09:53:50.059Z,12.09
2018-01-26T09:56:18.554Z,13.20
2018-01-26T09:58:47.048Z,12.91
2018-01-26T10:01:15.734Z,12.63
2018-01-26T10:03:44.279Z,12.23
2018-01-26T10:06:12.772Z,12.17
2018-01-26T10:08:41.364Z,11.80
2018-01-26T10:11:09.928Z,12.05
2018-01-26T10:13:38.430Z,11.85
2018-01-26T10:16:07.735Z,11.84
2018-01-26T10:18:36.216Z,11.99
2018-01-26T10:21:05.478Z,12.43
2018-01-26T10:23:34.212Z,13.12
2018-01-26T10:26:02.697Z,13.12
2018-01-26T10:28:31.233Z,13.79
2018-01-26T10:31:00.535Z,13.34
2018-01-26T10:33:29.791Z,13.97
2018-01-26T10:35:58.282Z,14.04
2018-01-26T10:38:27.579Z,11.94
2018-01-26T10:40:56.086Z,11.53
2018-01-26T10:43:24.571Z,12.60
2018-01-26T10:45:53.115Z,13.14
2018-01-26T10:48:21.635Z,13.41
2018-01-26T10:50:50.895Z,13.68
2018-01-26T10:53:19.427Z,13.25
2018-01-26T10:55:48.727Z,12.85
2018-01-26T10:58:17.977Z,13.75
2018-01-26T11:00:46.583Z,13.71
2018-01-26T11:03:15.075Z,14.51
2018-01-26T11:05:44.347Z,14.30
2018-01-26T11:08:13.051Z,14.43
2018-01-26T11:10:41.611Z,14.32
2018-01-26T11:13:10.102Z,13.83
2018-01-26T11:15:38.720Z,13.71
2018-01-26T11:18:07.982Z,14.73
2018-01-26T11:20:36.471Z,14.21
2018-01-26T11:23:05.008Z,14.02
2018-01-26T11:25:33.499Z,13.10
2018-01-26T11:28:01.991Z,12.73
2018-01-26T11:30:30.827Z,13.18
2018-01-26T11:33:00.144Z,13.57
2018-01-26T11:35:29.412Z,13.68
2018-01-26T11:37:58.374Z,13.27
2018-01-26T11:40:26.863Z,13.55
2018-01-26T11:42:55.364Z,13.33
2018-01-26T11:45:24.160Z,13.50
2018-01-26T11:47:52.732Z,13.77
2018-01-26T11:50:21.243Z,14.27
2018-01-26T11:52:50.699Z,14.05
2018-01-26T11:55:19.188Z,14.26
2018-01-26T11:57:47.740Z,13.50
2018-01-26T12:00:16.603Z,13.86
2018-01-26T12:02:45.912Z,13.32
2018-01-26T12:05:15.162Z,13.16
2018-01-26T12:07:43.835Z,12.84
2018-01-26T12:10:12.319Z,12.60
2018-01-26T12:12:41.583Z,12.65
2018-01-26T12:15:10.141Z,12.60
2018-01-26T12:17:39.392Z,12.84
2018-01-26T12:20:07.936Z,12.51
2018-01-26T12:22:37.270Z,12.32
2018-01-26T12:25:05.787Z,12.50
2018-01-26T12:27:34.304Z,12.80
2018-01-26T12:30:03.988Z,12.86
2018-01-26T12:32:33.260Z,12.86
2018-01-26T12:35:01.743Z,12.33
2018-01-26T12:37:31.043Z,11.62
2018-01-26T12:39:59.547Z,12.19
2018-01-26T12:42:28.103Z,12.08
2018-01-26T12:44:56.695Z,12.70
2018-01-26T12:47:25.178Z,13.39
2018-01-26T12:49:53.656Z,13.84
2018-01-26T12:52:22.363Z,13.32
2018-01-26T12:54:50.842Z,13.04
2018-01-26T12:57:19.348Z,13.28
2018-01-26T12:59:48.823Z,13.40
2018-01-26T13:02:17.315Z,13.28
2018-01-26T13:04:46.603Z,13.26
2018-01-26T13:07:15.163Z,13.33
2018-01-26T13:09:43.647Z,13.55
2018-01-26T13:12:12.128Z,13.63
2018-01-26T13:14:40.913Z,13.56
2018-01-26T13:17:09.394Z,12.90
2018-01-26T13:19:37.944Z,12.08
2018-01-26T13:22:06.479Z,11.48
2018-01-26T13:24:35.038Z,11.60
2018-01-26T13:27:03.531Z,12.32
2018-01-26T13:29:32.152Z,12.25
2018-01-26T13:32:01.408Z,12.62
2018-01-26T13:34:30.725Z,13.20
2018-01-26T13:36:59.484Z,12.12
2018-01-26T13:39:27.968Z,11.67
2018-01-26T13:41:56.454Z,11.55
2018-01-26T13:44:25.044Z,11.73
2018-01-26T13:46:53.524Z,11.40
2018-01-26T13:49:22.075Z,10.80
2018-01-26T13:51:50.831Z,10.28
2018-01-26T13:54:20.087Z,10.47
2018-01-26T13:56:48.564Z,10.58
2018-01-26T13:59:17.327Z,10.26
2018-01-26T14:01:45.816Z,10.25
2018-01-26T14:04:14.303Z,10.41
2018-01-26T14:06:43.092Z,10.65
2018-01-26T14:09:11.580Z,10.87
2018-01-26T14:11:40.070Z,10.66
2018-01-26T14:14:08.603Z,10.32
2018-01-26T14:16:37.855Z,10.36
2018-01-26T14:19:06.402Z,10.50
2018-01-26T14:21:35.156Z,10.85
2018-01-26T14:24:03.643Z,10.82
2018-01-26T14:26:33.644Z,10.22
2018-01-26T14:29:02.197Z,9.94
2018-01-26T14:31:30.711Z,9.71
2018-01-26T14:33:59.265Z,9.42
2018-01-26T14:36:27.831Z,9.11
2018-01-26T14:38:56.326Z,8.89
2018-01-26T14:41:24.871Z,8.84
2018-01-26T14:43:54.328Z,8.72
2018-01-26T14:46:22.814Z,8.55
2018-01-26T14:48:51.307Z,8.31
2018-01-26T14:51:20.066Z,7.82
2018-01-26T14:53:48.557Z,7.55
2018-01-26T14:56:17.051Z,7.39
2018-01-26T14:58:45.607Z,7.25
2018-01-26T15:01:14.087Z,7.07
2018-01-26T15:03:42.579Z,6.92
2018-01-26T15:06:11.115Z,6.74
2018-01-26T15:08:39.604Z,6.68
2018-01-26T15:11:08.153Z,6.70
2018-01-26T15:13:36.700Z,6.60
2018-01-26T15:16:05.190Z,6.53
2018-01-26T15:18:33.700Z,6.37
2018-01-26T15:21:02.299Z,6.33
2018-01-26T15:23:30.869Z,6.25
2018-01-26T15:25:59.360Z,6.13
2018-01-26T15:28:28.128Z,5.89
2018-01-26T15:30:57.415Z,5.85
2018-01-26T15:33:26.793Z,5.70
2018-01-26T15:35:56.094Z,5.66
2018-01-26T15:38:24.599Z,5.71
2018-01-26T15:40:53.884Z,5.63
2018-01-26T15:43:22.480Z,5.59
2018-01-26T15:45:51.032Z,5.48
2018-01-26T15:48:19.518Z,5.34
2018-01-26T15:50:48.047Z,5.16
2018-01-26T15:53:17.328Z,4.95
2018-01-26T15:55:46.647Z,4.78
2018-01-26T15:58:16.087Z,4.69
2018-01-26T16:00:44.597Z,4.55
2018-01-26T16:03:13.575Z,4.43
2018-01-26T16:05:42.123Z,4.48
2018-01-26T16:08:10.656Z,4.39
2018-01-26T16:10:39.176Z,4.23
2018-01-26T16:13:07.934Z,4.16
2018-01-26T16:15:36.511Z,4.11
2018-01-26T16:18:05.022Z,4.22
2018-01-26T16:20:34.833Z,4.27
2018-01-26T16:23:03.329Z,4.26
2018-01-26T16:25:31.856Z,4.17
2018-01-26T16:28:00.408Z,4.12
2018-01-26T16:30:29.789Z,4.10
2018-01-26T16:32:58.372Z,4.10
2018-01-26T16:35:27.679Z,4.08
2018-01-26T16:37:56.167Z,4.09
2018-01-26T16:40:24.679Z,4.14
2018-01-26T16:42:53.323Z,4.15
2018-01-26T16:45:21.886Z,4.13
2018-01-26T16:47:50.397Z,4.18
2018-01-26T16:50:20.110Z,4.13
2018-01-26T16:52:50.463Z,4.14
2018-01-26T16:55:20.008Z,4.14
2018-01-26T16:57:48.519Z,4.22
2018-01-26T17:00:17.139Z,4.16
2018-01-26T17:02:45.687Z,4.12
2018-01-26T17:05:14.188Z,4.11
2018-01-26T17:07:43.457Z,4.12
2018-01-26T17:10:12.019Z,4.10
2018-01-26T17:12:40.584Z,4.15
2018-01-26T17:15:09.111Z,4.12
2018-01-26T17:17:38.589Z,4.08
2018-01-26T17:20:07.083Z,4.05
2018-01-26T17:22:35.661Z,4.02
2018-01-26T17:25:04.207Z,3.92
2018-01-26T17:27:32.702Z,3.73
2018-01-26T17:30:01.211Z,3.60
2018-01-26T17:32:30.198Z,3.53
2018-01-26T17:34:58.707Z,3.46
2018-01-26T17:37:27.211Z,3.48
2018-01-26T17:39:55.791Z,3.55
2018-01-26T17:42:24.309Z,3.61
2018-01-26T17:44:52.839Z,3.70
2018-01-26T17:47:21.488Z,3.63
2018-01-26T17:49:50.043Z,3.60
2018-01-26T17:52:18.542Z,3.57
2018-01-26T17:54:47.139Z,3.61
2018-01-26T17:57:15.863Z,3.57
2018-01-26T17:59:44.449Z,3.56
2018-01-26T18:02:13.311Z,3.50
2018-01-26T18:04:42.611Z,3.47
2018-01-26T18:07:11.974Z,3.51
2018-01-26T18:09:41.447Z,3.47
2018-01-26T18:12:09.967Z,3.29
2018-01-26T18:14:38.468Z,3.28
2018-01-26T18:17:07.135Z,3.33
2018-01-26T18:19:35.765Z,3.36
2018-01-26T18:22:05.029Z,3.42
2018-01-26T18:24:33.733Z,3.51
2018-01-26T18:27:03.056Z,3.43
2018-01-26T18:29:31.555Z,3.42
2018-01-26T18:32:00.311Z,3.36
2018-01-26T18:34:29.671Z,3.28
2018-01-26T18:36:58.175Z,3.24
2018-01-26T18:39:26.813Z,3.16
2018-01-26T18:41:55.387Z,3.03
2018-01-26T18:44:23.903Z,2.93
2018-01-26T18:46:53.483Z,2.87
2018-01-26T18:49:22.050Z,2.82
2018-01-26T18:51:50.767Z,2.80
2018-01-26T18:54:19.483Z,2.74
2018-01-26T18:56:48.066Z,2.64
2018-01-26T18:59:17.329Z,2.63
2018-01-26T19:01:46.084Z,2.55
2018-01-26T19:04:14.591Z,2.49
2018-01-26T19:06:43.942Z,2.46
2018-01-26T19:09:12.635Z,2.47
2018-01-26T19:11:41.934Z,2.44
2018-01-26T19:14:10.440Z,2.51
2018-01-26T19:16:39.048Z,2.53
2018-01-26T19:19:08.307Z,2.69
2018-01-26T19:21:36.844Z,2.66
2018-01-26T19:24:05.580Z,2.59
2018-01-26T19:26:34.839Z,2.49
2018-01-26T19:29:03.348Z,2.51
2018-01-26T19:31:32.244Z,2.40
2018-01-26T19:34:01.736Z,2.08
2018-01-26T19:36:30.239Z,2.13
2018-01-26T19:38:58.785Z,2.06
2018-01-26T19:41:27.284Z,1.88
2018-01-26T19:43:55.800Z,1.89
2018-01-26T19:46:24.344Z,1.82
2018-01-26T19:48:52.832Z,1.80
2018-01-26T19:51:21.418Z,1.78
2018-01-26T19:53:50.372Z,1.74
2018-01-26T19:56:18.990Z,1.73
2018-01-26T19:58:47.546Z,1.74
2018-01-26T20:01:17.018Z,1.79
2018-01-26T20:04:04.335Z,1.86
2018-01-26T20:06:55.991Z,1.93
2018-01-26T20:09:26.111Z,1.98
2018-01-26T20:12:00.196Z,1.93
2018-01-26T20:14:28.687Z,1.86
2018-01-26T20:16:57.195Z,1.61
2018-01-26T20:19:26.503Z,1.67
2018-01-26T20:21:55.854Z,1.82
2018-01-26T20:24:24.352Z,1.74
2018-01-26T20:26:52.965Z,1.25
2018-01-26T20:29:22.284Z,1.28
2018-01-26T20:31:51.544Z,1.53
2018-01-26T20:34:20.150Z,1.37
2018-01-26T20:36:49.412Z,1.33
2018-01-26T20:39:17.907Z,1.12
2018-01-26T20:41:46.525Z,1.15
2018-01-26T20:44:15.091Z,1.11
2018-01-26T20:46:44.411Z,1.04
2018-01-26T20:49:13.723Z,0.98
2018-01-26T20:51:42.271Z,0.80
2018-01-26T20:54:10.772Z,0.76
2018-01-26T20:56:40.276Z,0.72
2018-01-26T20:59:09.537Z,0.79
2018-01-26T21:01:38.795Z,0.72
2018-01-26T21:04:07.501Z,0.79
2018-01-26T21:06:35.991Z,0.70
2018-01-26T21:09:04.628Z,0.78
2018-01-26T21:11:34.096Z,0.82
2018-01-26T21:14:02.668Z,0.86
2018-01-26T21:16:31.991Z,0.85
2018-01-26T21:19:00.640Z,0.97
2018-01-26T21:21:29.196Z,0.90
2018-01-26T21:23:57.767Z,0.92
2018-01-26T21:26:27.188Z,0.86
2018-01-26T21:28:55.747Z,1.23
2018-01-26T21:31:25.010Z,1.20
2018-01-26T21:33:53.711Z,1.20
2018-01-26T21:36:22.209Z,1.14
2018-01-26T21:38:51.528Z,1.12
2018-01-26T21:41:20.343Z,1.00
2018-01-26T21:43:48.852Z,0.97
2018-01-26T21:46:17.352Z,0.94
2018-01-26T21:48:45.902Z,0.89
2018-01-26T21:51:14.395Z,0.82
2018-01-26T21:53:42.888Z,0.78
2018-01-26T21:56:11.531Z,0.79
2018-01-26T21:58:40.083Z,0.74
2018-01-26T22:01:09.343Z,0.77
2018-01-26T22:03:38.228Z,0.57
2018-01-26T22:06:12.084Z,0.63
2018-01-26T22:08:41.744Z,0.61
2018-01-26T22:11:10.320Z,0.63
2018-01-26T22:13:38.819Z,0.61
2018-01-26T22:16:07.451Z,0.61
2018-01-26T22:18:36.023Z,0.64
2018-01-26T22:21:04.599Z,0.63
2018-01-26T22:23:33.907Z,0.80
2018-01-26T22:26:03.175Z,0.94
2018-01-26T22:28:31.684Z,1.00
2018-01-26T22:31:01.284Z,1.09
2018-01-26T22:33:30.624Z,1.15
2018-01-26T22:35:59.122Z,1.12
2018-01-26T22:38:27.719Z,1.23
2018-01-26T22:40:56.223Z,1.22
2018-01-26T22:43:25.491Z,1.26
2018-01-26T22:45:55.063Z,1.04
2018-01-26T22:48:23.564Z,1.01
2018-01-26T22:50:52.130Z,0.82
2018-01-26T22:53:20.991Z,0.80
2018-01-26T22:55:50.324Z,0.77
2018-01-26T22:58:18.816Z,0.77
2018-01-26T23:00:47.451Z,0.85
2018-01-26T23:03:28.580Z,0.79
2018-01-26T23:05:57.219Z,0.84
2018-01-26T23:08:26.485Z,0.67
2018-01-26T23:10:55.069Z,0.67
2018-01-26T23:13:24.603Z,0.75
2018-01-26T23:15:54.607Z,0.74
2018-01-26T23:18:23.101Z,0.68
2018-01-26T23:20:51.991Z,0.70
2018-01-26T23:23:20.543Z,0.70
2018-01-26T23:25:49.091Z,0.81
2018-01-26T23:28:17.631Z,0.75
2018-01-26T23:30:47.724Z,0.70
2018-01-26T23:33:16.218Z,0.62
2018-01-26T23:35:44.928Z,0.48
2018-01-26T23:38:14.243Z,0.63
2018-01-26T23:40:43.507Z,0.63
2018-01-26T23:43:12.205Z,0.72
2018-01-26T23:45:40.711Z,0.70
2018-01-26T23:48:09.970Z,0.65
2018-01-26T23:50:38.510Z,0.62
2018-01-26T23:53:07.003Z,0.59
2018-01-26T23:55:35.491Z,0.62
2018-01-26T23:58:04.029Z,0.54
